createdAt,value
2017-10-03T00:00:57.159Z,1005.67
2017-10-03T00:02:57.204Z,1005.67
2017-10-03T00:03:57.225Z,1005.71
2017-10-03T00:04:57.248Z,1005.7
2017-10-03T00:05:57.272Z,1005.66
2017-10-03T00:06:57.294Z,1005.61
2017-10-03T00:07:57.314Z,1005.69
2017-10-03T00:08:57.336Z,1005.63
2017-10-03T00:09:57.359Z,1005.63
2017-10-03T00:10:57.378Z,1005.59
2017-10-03T00:11:57.401Z,1005.63
2017-10-03T00:12:57.424Z,1005.55
2017-10-03T00:13:57.446Z,1005.52
2017-10-03T00:14:57.469Z,1005.5
2017-10-03T00:15:57.491Z,1005.38
2017-10-03T00:16:57.514Z,1005.38
2017-10-03T00:17:57.534Z,1005.43
2017-10-03T00:18:57.554Z,1005.45
2017-10-03T00:19:57.578Z,1005.41
2017-10-03T00:20:57.601Z,1005.37
2017-10-03T00:21:57.623Z,1005.41
2017-10-03T00:22:57.645Z,1005.38
2017-10-03T00:23:57.666Z,1005.35
2017-10-03T00:24:57.689Z,1005.31
2017-10-03T00:25:57.711Z,1005.35
2017-10-03T00:26:57.731Z,1005.29
2017-10-03T00:27:57.754Z,1005.22
2017-10-03T00:28:57.778Z,1005.21
2017-10-03T00:29:57.799Z,1005.2
2017-10-03T00:30:57.821Z,1005.2
2017-10-03T00:31:57.840Z,1005.2
2017-10-03T00:32:57.863Z,1005.18
2017-10-03T00:34:57.909Z,1005.11
2017-10-03T00:35:57.929Z,1005.11
2017-10-03T00:36:57.949Z,1005.13
2017-10-03T00:37:57.974Z,1005.15
2017-10-03T00:38:57.994Z,1005.17
2017-10-03T00:39:58.017Z,1005.19
2017-10-03T00:40:58.040Z,1005.23
2017-10-03T00:41:58.061Z,1005.27
2017-10-03T00:42:58.084Z,1005.23
2017-10-03T00:43:58.103Z,1005.29
2017-10-03T00:44:58.127Z,1005.2
2017-10-03T00:45:58.149Z,1005.19
2017-10-03T00:46:58.171Z,1005.16
2017-10-03T00:47:58.191Z,1005.16
2017-10-03T00:48:58.213Z,1005.17
2017-10-03T00:50:58.258Z,1005.18
2017-10-03T00:51:58.281Z,1005.18
2017-10-03T00:52:58.303Z,1005.19
2017-10-03T00:53:58.323Z,1005.2
2017-10-03T00:54:58.345Z,1005.21
2017-10-03T00:55:58.369Z,1005.22
2017-10-03T00:56:58.391Z,1005.26
2017-10-03T00:57:58.412Z,1005.27
2017-10-03T00:58:58.435Z,1005.2
2017-10-03T00:59:58.457Z,1005.24
2017-10-03T01:00:58.479Z,1005.25
2017-10-03T01:01:58.501Z,1005.35
2017-10-03T01:02:58.522Z,1005.31
2017-10-03T01:03:58.543Z,1005.36
2017-10-03T01:04:58.565Z,1005.33
2017-10-03T01:06:58.607Z,1005.29
2017-10-03T01:07:58.630Z,1005.3
2017-10-03T01:08:58.654Z,1005.3
2017-10-03T01:09:58.674Z,1005.29
2017-10-03T01:10:58.697Z,1005.27
2017-10-03T01:11:58.718Z,1005.3
2017-10-03T01:12:58.741Z,1005.26
2017-10-03T01:13:58.773Z,1005.28
2017-10-03T01:14:58.784Z,1005.33
2017-10-03T01:15:58.806Z,1005.36
2017-10-03T01:16:58.828Z,1005.38
2017-10-03T01:17:58.848Z,1005.32
2017-10-03T01:18:58.870Z,1005.36
2017-10-03T01:19:58.943Z,1005.4
2017-10-03T01:20:58.915Z,1005.36
2017-10-03T01:22:58.959Z,1005.28
2017-10-03T01:23:58.981Z,1005.33
2017-10-03T01:24:59.002Z,1005.35
2017-10-03T01:25:59.024Z,1005.41
2017-10-03T01:26:59.046Z,1005.37
2017-10-03T01:27:59.066Z,1005.37
2017-10-03T01:28:59.090Z,1005.36
2017-10-03T01:29:59.110Z,1005.36
2017-10-03T01:30:59.134Z,1005.41
2017-10-03T01:31:59.154Z,1005.38
2017-10-03T01:32:59.176Z,1005.42
2017-10-03T01:33:59.198Z,1005.41
2017-10-03T01:34:59.220Z,1005.36
2017-10-03T01:35:59.242Z,1005.35
2017-10-03T01:37:59.286Z,1005.3
2017-10-03T01:38:59.308Z,1005.27
2017-10-03T01:39:59.330Z,1005.26
2017-10-03T01:40:59.351Z,1005.31
2017-10-03T01:41:59.373Z,1005.26
2017-10-03T01:42:59.395Z,1005.24
2017-10-03T01:43:59.443Z,1005.23
2017-10-03T01:44:59.438Z,1005.25
2017-10-03T01:45:59.459Z,1005.21
2017-10-03T01:46:59.481Z,1005.25
2017-10-03T01:47:59.503Z,1005.3
2017-10-03T01:48:59.526Z,1005.28
2017-10-03T01:49:59.545Z,1005.34
2017-10-03T01:50:59.567Z,1005.29
2017-10-03T01:51:59.590Z,1005.32
2017-10-03T01:52:59.612Z,1005.36
2017-10-03T01:53:59.632Z,1005.35
2017-10-03T01:54:59.654Z,1005.4
2017-10-03T01:55:59.676Z,1005.44
2017-10-03T01:56:59.697Z,1005.45
2017-10-03T01:57:59.720Z,1005.42
2017-10-03T01:58:59.740Z,1005.39
2017-10-03T01:59:59.764Z,1005.37
2017-10-03T02:00:59.783Z,1005.35
2017-10-03T02:01:59.805Z,1005.34
2017-10-03T02:02:59.827Z,1005.31
2017-10-03T02:03:59.849Z,1005.36
2017-10-03T02:04:59.870Z,1005.36
2017-10-03T02:05:59.892Z,1005.36
2017-10-03T02:06:59.914Z,1005.4
2017-10-03T02:07:59.935Z,1005.43
2017-10-03T02:09:59.979Z,1005.42
2017-10-03T02:11:00.000Z,1005.37
2017-10-03T02:12:00.022Z,1005.36
2017-10-03T02:13:00.043Z,1005.34
2017-10-03T02:14:00.065Z,1005.29
2017-10-03T02:15:00.086Z,1005.29
2017-10-03T02:16:00.107Z,1005.3
2017-10-03T02:17:00.130Z,1005.26
2017-10-03T02:18:00.154Z,1005.25
2017-10-03T02:19:00.171Z,1005.25
2017-10-03T02:20:00.193Z,1005.22
2017-10-03T02:21:00.216Z,1005.25
2017-10-03T02:22:00.237Z,1005.26
2017-10-03T02:23:00.259Z,1005.32
2017-10-03T02:24:00.283Z,1005.37
2017-10-03T02:26:00.324Z,1005.33
2017-10-03T02:27:00.345Z,1005.35
2017-10-03T02:28:00.366Z,1005.38
2017-10-03T02:29:00.388Z,1005.35
2017-10-03T02:30:00.409Z,1005.33
2017-10-03T02:31:00.432Z,1005.3
2017-10-03T02:32:00.454Z,1005.31
2017-10-03T02:33:00.475Z,1005.32
2017-10-03T02:34:00.496Z,1005.31
2017-10-03T02:35:00.517Z,1005.31
2017-10-03T02:36:00.539Z,1005.33
2017-10-03T02:37:00.561Z,1005.36
2017-10-03T02:38:00.580Z,1005.35
2017-10-03T02:39:00.610Z,1005.39
2017-10-03T02:40:00.625Z,1005.4
2017-10-03T02:42:00.667Z,1005.41
2017-10-03T02:43:00.689Z,1005.41
2017-10-03T02:44:00.712Z,1005.36
2017-10-03T02:45:00.733Z,1005.36
2017-10-03T02:46:00.754Z,1005.39
2017-10-03T02:47:00.780Z,1005.33
2017-10-03T02:48:00.799Z,1005.3
2017-10-03T02:49:00.817Z,1005.27
2017-10-03T02:50:00.840Z,1005.23
2017-10-03T02:51:00.862Z,1005.18
2017-10-03T02:52:00.886Z,1005.25
2017-10-03T02:53:00.905Z,1005.23
2017-10-03T02:54:00.936Z,1005.21
2017-10-03T02:55:00.949Z,1005.16
2017-10-03T02:56:00.969Z,1005.17
2017-10-03T02:58:01.012Z,1005.13
2017-10-03T02:59:01.034Z,1005.15
2017-10-03T03:00:01.056Z,1005.15
2017-10-03T03:01:01.078Z,1005.09
2017-10-03T03:02:01.098Z,1005.07
2017-10-03T03:03:01.120Z,1005.02
2017-10-03T03:04:01.162Z,1005.06
2017-10-03T03:05:01.165Z,1005.07
2017-10-03T03:06:01.186Z,1005.05
2017-10-03T03:07:01.206Z,1005.04
2017-10-03T03:08:01.230Z,1005.03
2017-10-03T03:09:01.249Z,1004.99
2017-10-03T03:10:01.273Z,1004.98
2017-10-03T03:11:01.294Z,1004.95
2017-10-03T03:13:01.339Z,1004.97
2017-10-03T03:14:01.360Z,1004.92
2017-10-03T03:15:01.380Z,1004.93
2017-10-03T03:16:01.409Z,1004.96
2017-10-03T03:17:01.425Z,1004.98
2017-10-03T03:18:01.443Z,1004.98
2017-10-03T03:19:01.466Z,1004.96
2017-10-03T03:20:01.488Z,1004.95
2017-10-03T03:21:01.511Z,1004.95
2017-10-03T03:22:01.531Z,1004.95
2017-10-03T03:23:01.554Z,1004.95
2017-10-03T03:24:01.576Z,1004.95
2017-10-03T03:25:01.595Z,1004.99
2017-10-03T03:26:01.617Z,1004.99
2017-10-03T03:27:01.639Z,1005
2017-10-03T03:28:01.661Z,1004.98
2017-10-03T03:29:01.683Z,1004.97
2017-10-03T03:30:01.703Z,1004.95
2017-10-03T03:31:01.725Z,1004.98
2017-10-03T03:32:01.746Z,1004.99
2017-10-03T03:33:01.768Z,1005.02
2017-10-03T03:34:01.791Z,1005.02
2017-10-03T03:35:01.812Z,1005.05
2017-10-03T03:36:01.834Z,1004.96
2017-10-03T03:37:01.855Z,1004.96
2017-10-03T03:38:01.876Z,1004.88
2017-10-03T03:39:01.898Z,1004.92
2017-10-03T03:40:01.919Z,1004.93
2017-10-03T03:41:01.940Z,1004.97
2017-10-03T03:42:01.962Z,1005.04
2017-10-03T03:43:01.983Z,1005.09
2017-10-03T03:45:02.026Z,1005.02
2017-10-03T03:46:02.048Z,1005
2017-10-03T03:47:02.069Z,1005.02
2017-10-03T03:48:02.091Z,1005
2017-10-03T03:49:02.112Z,1005.04
2017-10-03T03:50:02.134Z,1005.05
2017-10-03T03:51:02.155Z,1005.03
2017-10-03T03:52:02.177Z,1005
2017-10-03T03:53:02.198Z,1004.96
2017-10-03T03:54:02.219Z,1004.95
2017-10-03T03:55:02.240Z,1004.99
2017-10-03T03:56:02.263Z,1005.02
2017-10-03T03:57:02.285Z,1004.99
2017-10-03T03:58:02.304Z,1004.99
2017-10-03T03:59:02.327Z,1004.99
2017-10-03T04:01:02.370Z,1004.95
2017-10-03T04:02:02.391Z,1004.94
2017-10-03T04:03:02.413Z,1004.9
2017-10-03T04:04:02.437Z,1004.87
2017-10-03T04:05:02.455Z,1004.81
2017-10-03T04:06:02.479Z,1004.84
2017-10-03T04:07:02.500Z,1004.83
2017-10-03T04:08:02.521Z,1004.82
2017-10-03T04:09:02.551Z,1004.83
2017-10-03T04:10:02.563Z,1004.83
2017-10-03T04:11:02.584Z,1004.81
2017-10-03T04:12:02.608Z,1004.74
2017-10-03T04:13:02.628Z,1004.77
2017-10-03T04:14:02.650Z,1004.81
2017-10-03T04:15:02.672Z,1004.83
2017-10-03T04:17:02.714Z,1004.84
2017-10-03T04:18:02.736Z,1004.85
2017-10-03T04:19:02.756Z,1004.85
2017-10-03T04:20:02.777Z,1004.85
2017-10-03T04:21:02.800Z,1004.85
2017-10-03T04:22:02.823Z,1004.79
2017-10-03T04:23:02.845Z,1004.74
2017-10-03T04:24:02.864Z,1004.66
2017-10-03T04:25:02.890Z,1004.66
2017-10-03T04:26:02.907Z,1004.66
2017-10-03T04:27:02.928Z,1004.68
2017-10-03T04:28:02.949Z,1004.68
2017-10-03T04:29:02.971Z,1004.69
2017-10-03T04:30:02.994Z,1004.72
2017-10-03T04:31:03.025Z,1004.78
2017-10-03T04:33:03.058Z,1004.88
2017-10-03T04:34:03.079Z,1004.88
2017-10-03T04:35:03.100Z,1004.92
2017-10-03T04:36:03.120Z,1004.92
2017-10-03T04:37:03.142Z,1004.9
2017-10-03T04:38:03.164Z,1004.89
2017-10-03T04:39:03.192Z,1004.85
2017-10-03T04:40:03.205Z,1004.86
2017-10-03T04:41:03.228Z,1004.85
2017-10-03T04:42:03.249Z,1004.87
2017-10-03T04:43:03.271Z,1004.85
2017-10-03T04:44:03.293Z,1004.85
2017-10-03T04:45:03.314Z,1004.93
2017-10-03T04:46:03.335Z,1004.91
2017-10-03T04:48:03.381Z,1004.89
2017-10-03T04:49:03.400Z,1004.86
2017-10-03T04:50:03.421Z,1004.85
2017-10-03T04:51:03.449Z,1004.86
2017-10-03T04:52:03.465Z,1004.85
2017-10-03T04:53:03.486Z,1004.83
2017-10-03T04:54:03.508Z,1004.82
2017-10-03T04:55:03.528Z,1004.78
2017-10-03T04:56:03.550Z,1004.82
2017-10-03T04:57:03.570Z,1004.82
2017-10-03T04:58:03.591Z,1004.77
2017-10-03T04:59:03.614Z,1004.77
2017-10-03T05:00:03.636Z,1004.8
2017-10-03T05:01:03.656Z,1004.85
2017-10-03T05:02:03.677Z,1004.85
2017-10-03T05:03:03.699Z,1004.83
2017-10-03T05:04:03.721Z,1004.84
2017-10-03T05:05:03.743Z,1004.88
2017-10-03T05:06:03.764Z,1004.86
2017-10-03T05:07:03.787Z,1004.88
2017-10-03T05:08:03.805Z,1004.85
2017-10-03T05:09:03.826Z,1004.94
2017-10-03T05:10:03.850Z,1004.95
2017-10-03T05:11:03.872Z,1004.94
2017-10-03T05:12:03.892Z,1004.91
2017-10-03T05:13:03.913Z,1004.88
2017-10-03T05:14:03.935Z,1004.87
2017-10-03T05:15:03.956Z,1004.9
2017-10-03T05:16:03.978Z,1004.94
2017-10-03T05:17:03.999Z,1004.94
2017-10-03T05:18:04.019Z,1004.94
2017-10-03T05:20:04.065Z,1004.91
2017-10-03T05:21:04.084Z,1004.88
2017-10-03T05:22:04.107Z,1004.91
2017-10-03T05:23:04.127Z,1004.89
2017-10-03T05:24:04.148Z,1004.94
2017-10-03T05:25:04.172Z,1004.93
2017-10-03T05:26:04.192Z,1004.97
2017-10-03T05:27:04.212Z,1004.94
2017-10-03T05:28:04.239Z,1004.95
2017-10-03T05:29:04.256Z,1004.9
2017-10-03T05:30:04.279Z,1004.9
2017-10-03T05:31:04.299Z,1004.91
2017-10-03T05:32:04.319Z,1004.93
2017-10-03T05:33:04.341Z,1004.94
2017-10-03T05:34:04.362Z,1004.95
2017-10-03T05:36:04.406Z,1004.92
2017-10-03T05:37:04.426Z,1004.93
2017-10-03T05:38:04.449Z,1004.92
2017-10-03T05:39:04.470Z,1004.96
2017-10-03T05:40:04.491Z,1004.97
2017-10-03T05:41:04.512Z,1005.05
2017-10-03T05:42:04.584Z,1004.97
2017-10-03T05:43:04.557Z,1005.02
2017-10-03T05:44:04.578Z,1005.03
2017-10-03T05:45:04.598Z,1004.99
2017-10-03T05:46:04.620Z,1005.03
2017-10-03T05:47:04.642Z,1005.07
2017-10-03T05:48:04.664Z,1005.09
2017-10-03T05:49:04.687Z,1005.1
2017-10-03T05:50:04.708Z,1005.02
2017-10-03T05:52:04.749Z,1004.97
2017-10-03T05:53:04.769Z,1005.01
2017-10-03T05:54:04.794Z,1005.09
2017-10-03T05:55:04.813Z,1005.04
2017-10-03T05:56:04.834Z,1005.11
2017-10-03T05:57:04.857Z,1005.08
2017-10-03T05:58:04.879Z,1005.1
2017-10-03T05:59:04.900Z,1005.1
2017-10-03T06:00:04.922Z,1005.14
2017-10-03T06:01:04.942Z,1005.19
2017-10-03T06:02:04.964Z,1005.22
2017-10-03T06:03:04.985Z,1005.22
2017-10-03T06:04:05.008Z,1005.25
2017-10-03T06:05:05.030Z,1005.25
2017-10-03T06:06:05.051Z,1005.29
2017-10-03T06:08:05.095Z,1005.26
2017-10-03T06:09:05.117Z,1005.31
2017-10-03T06:10:05.136Z,1005.33
2017-10-03T06:11:05.160Z,1005.42
2017-10-03T06:12:05.180Z,1005.43
2017-10-03T06:13:05.202Z,1005.51
2017-10-03T06:14:05.224Z,1005.49
2017-10-03T06:15:05.247Z,1005.51
2017-10-03T06:16:05.266Z,1005.52
2017-10-03T06:17:05.288Z,1005.49
2017-10-03T06:18:05.308Z,1005.5
2017-10-03T06:19:05.332Z,1005.48
2017-10-03T06:20:05.404Z,1005.5
2017-10-03T06:21:05.375Z,1005.54
2017-10-03T06:23:05.420Z,1005.55
2017-10-03T06:24:05.440Z,1005.56
2017-10-03T06:25:05.462Z,1005.52
2017-10-03T06:26:05.484Z,1005.48
2017-10-03T06:27:05.508Z,1005.52
2017-10-03T06:28:05.528Z,1005.54
2017-10-03T06:29:05.549Z,1005.59
2017-10-03T06:30:05.571Z,1005.61
2017-10-03T06:31:05.594Z,1005.54
2017-10-03T06:32:05.614Z,1005.55
2017-10-03T06:33:05.638Z,1005.53
2017-10-03T06:34:05.659Z,1005.53
2017-10-03T06:35:05.679Z,1005.57
2017-10-03T06:36:05.701Z,1005.55
2017-10-03T06:37:05.722Z,1005.55
2017-10-03T06:38:05.745Z,1005.59
2017-10-03T06:39:05.766Z,1005.55
2017-10-03T06:40:05.788Z,1005.58
2017-10-03T06:41:05.810Z,1005.62
2017-10-03T06:42:05.831Z,1005.65
2017-10-03T06:43:05.854Z,1005.7
2017-10-03T06:44:05.875Z,1005.73
2017-10-03T06:45:05.899Z,1005.83
2017-10-03T06:46:05.920Z,1005.83
2017-10-03T06:47:05.941Z,1005.84
2017-10-03T06:48:05.963Z,1005.84
2017-10-03T06:49:05.986Z,1005.83
2017-10-03T06:50:06.007Z,1005.85
2017-10-03T06:51:06.029Z,1005.79
2017-10-03T06:52:06.050Z,1005.87
2017-10-03T06:53:06.072Z,1005.86
2017-10-03T06:55:06.116Z,1005.9
2017-10-03T06:56:06.138Z,1005.92
2017-10-03T06:57:06.161Z,1005.96
2017-10-03T06:58:06.181Z,1005.91
2017-10-03T06:59:06.205Z,1005.93
2017-10-03T07:00:06.228Z,1005.97
2017-10-03T07:01:06.249Z,1005.91
2017-10-03T07:02:06.269Z,1005.96
2017-10-03T07:03:06.295Z,1005.95
2017-10-03T07:04:06.313Z,1005.98
2017-10-03T07:05:06.336Z,1006
2017-10-03T07:06:06.359Z,1006
2017-10-03T07:07:06.381Z,1005.95
2017-10-03T07:08:06.405Z,1005.99
2017-10-03T07:09:06.425Z,1005.93
2017-10-03T07:11:06.470Z,1006.01
2017-10-03T07:12:06.491Z,1006.03
2017-10-03T07:13:06.512Z,1006.07
2017-10-03T07:14:06.536Z,1006.11
2017-10-03T07:15:06.555Z,1006.16
2017-10-03T07:16:06.579Z,1006.13
2017-10-03T07:17:06.602Z,1006.14
2017-10-03T07:18:06.624Z,1006.15
2017-10-03T07:19:06.645Z,1006.13
2017-10-03T07:20:06.668Z,1006.12
2017-10-03T07:21:06.689Z,1006.18
2017-10-03T07:22:06.711Z,1006.19
2017-10-03T07:23:06.733Z,1006.21
2017-10-03T07:24:06.755Z,1006.22
2017-10-03T07:25:06.779Z,1006.15
2017-10-03T07:27:06.821Z,1006.2
2017-10-03T07:28:06.847Z,1006.18
2017-10-03T07:29:06.869Z,1006.14
2017-10-03T07:30:06.889Z,1006.09
2017-10-03T07:31:06.912Z,1006.1
2017-10-03T07:32:06.936Z,1006.1
2017-10-03T07:33:06.956Z,1006.1
2017-10-03T07:34:06.981Z,1006.12
2017-10-03T07:35:07.002Z,1006.09
2017-10-03T07:36:07.025Z,1006.06
2017-10-03T07:37:07.046Z,1006.13
2017-10-03T07:38:07.069Z,1006.11
2017-10-03T07:39:07.092Z,1006.08
2017-10-03T07:40:07.115Z,1006.03
2017-10-03T07:41:07.136Z,1006.07
2017-10-03T07:43:07.181Z,1006.07
2017-10-03T07:44:07.205Z,1006.08
2017-10-03T07:45:07.225Z,1006.07
2017-10-03T07:46:07.249Z,1006.08
2017-10-03T07:47:07.271Z,1006.14
2017-10-03T07:48:07.294Z,1006.14
2017-10-03T07:49:07.315Z,1006.09
2017-10-03T07:50:07.338Z,1006.15
2017-10-03T07:51:07.361Z,1006.17
2017-10-03T07:52:07.382Z,1006.15
2017-10-03T07:53:07.405Z,1006.19
2017-10-03T07:54:07.428Z,1006.18
2017-10-03T07:55:07.452Z,1006.18
2017-10-03T07:56:07.473Z,1006.25
2017-10-03T07:58:07.519Z,1006.29
2017-10-03T07:59:07.540Z,1006.37
2017-10-03T08:00:07.563Z,1006.37
2017-10-03T08:01:07.586Z,1006.35
2017-10-03T08:02:07.610Z,1006.34
2017-10-03T08:03:07.633Z,1006.37
2017-10-03T08:04:07.654Z,1006.37
2017-10-03T08:05:07.678Z,1006.4
2017-10-03T08:06:07.698Z,1006.44
2017-10-03T08:07:07.722Z,1006.45
2017-10-03T08:08:07.745Z,1006.45
2017-10-03T08:09:07.767Z,1006.45
2017-10-03T08:10:07.789Z,1006.48
2017-10-03T08:11:07.813Z,1006.45
2017-10-03T08:12:07.836Z,1006.42
2017-10-03T08:13:07.860Z,1006.47
2017-10-03T08:14:07.880Z,1006.45
2017-10-03T08:15:07.953Z,1006.43
2017-10-03T08:16:07.925Z,1006.46
2017-10-03T08:17:07.946Z,1006.48
2017-10-03T08:18:07.970Z,1006.44
2017-10-03T08:19:07.995Z,1006.48
2017-10-03T08:20:08.016Z,1006.48
2017-10-03T08:21:08.038Z,1006.44
2017-10-03T08:22:08.060Z,1006.47
2017-10-03T08:23:08.083Z,1006.49
2017-10-03T08:24:08.106Z,1006.52
2017-10-03T08:25:08.128Z,1006.57
2017-10-03T08:26:08.152Z,1006.56
2017-10-03T08:27:08.174Z,1006.53
2017-10-03T08:28:08.198Z,1006.55
2017-10-03T08:30:08.241Z,1006.51
2017-10-03T08:31:08.265Z,1006.55
2017-10-03T08:32:08.288Z,1006.54
2017-10-03T08:33:08.310Z,1006.53
2017-10-03T08:34:08.333Z,1006.56
2017-10-03T08:35:08.354Z,1006.59
2017-10-03T08:36:08.377Z,1006.54
2017-10-03T08:37:08.400Z,1006.62
2017-10-03T08:38:08.422Z,1006.59
2017-10-03T08:39:08.445Z,1006.58
2017-10-03T08:40:08.467Z,1006.61
2017-10-03T08:41:08.490Z,1006.61
2017-10-03T08:42:08.519Z,1006.57
2017-10-03T08:43:08.536Z,1006.64
2017-10-03T08:44:08.559Z,1006.61
2017-10-03T08:46:08.605Z,1006.68
2017-10-03T08:47:08.627Z,1006.72
2017-10-03T08:48:08.651Z,1006.72
2017-10-03T08:49:08.675Z,1006.77
2017-10-03T08:50:08.696Z,1006.72
2017-10-03T08:51:08.721Z,1006.69
2017-10-03T08:52:08.743Z,1006.74
2017-10-03T08:53:08.768Z,1006.78
2017-10-03T08:54:08.793Z,1006.78
2017-10-03T08:55:08.812Z,1006.82
2017-10-03T08:56:08.836Z,1006.81
2017-10-03T08:57:08.858Z,1006.84
2017-10-03T08:58:08.880Z,1006.81
2017-10-03T08:59:08.905Z,1006.86
2017-10-03T09:00:08.930Z,1006.88
2017-10-03T09:02:08.976Z,1006.91
2017-10-03T09:03:08.998Z,1006.93
2017-10-03T09:04:09.020Z,1006.93
2017-10-03T09:05:09.044Z,1006.91
2017-10-03T09:06:09.066Z,1006.95
2017-10-03T09:07:09.102Z,1006.88
2017-10-03T09:08:09.114Z,1006.89
2017-10-03T09:09:09.136Z,1006.92
2017-10-03T09:10:09.161Z,1006.91
2017-10-03T09:11:09.185Z,1006.93
2017-10-03T09:12:09.205Z,1006.91
2017-10-03T09:13:09.229Z,1006.95
2017-10-03T09:14:09.251Z,1006.93
2017-10-03T09:15:09.276Z,1006.9
2017-10-03T09:16:09.299Z,1006.9
2017-10-03T09:18:09.346Z,1006.92
2017-10-03T09:19:09.369Z,1006.95
2017-10-03T09:20:09.392Z,1006.93
2017-10-03T09:21:09.413Z,1006.91
2017-10-03T09:22:09.439Z,1006.9
2017-10-03T09:23:09.459Z,1006.94
2017-10-03T09:24:09.483Z,1006.97
2017-10-03T09:25:09.508Z,1007
2017-10-03T09:26:09.530Z,1007
2017-10-03T09:27:09.554Z,1007.07
2017-10-03T09:28:09.578Z,1007.13
2017-10-03T09:29:09.600Z,1007.12
2017-10-03T09:30:09.624Z,1007.07
2017-10-03T09:31:09.648Z,1007.16
2017-10-03T09:33:09.694Z,1007.1
2017-10-03T09:34:09.717Z,1007.13
2017-10-03T09:35:09.741Z,1007.16
2017-10-03T09:36:09.765Z,1007.15
2017-10-03T09:37:09.789Z,1007.22
2017-10-03T09:38:09.811Z,1007.19
2017-10-03T09:39:09.835Z,1007.19
2017-10-03T09:40:09.860Z,1007.25
2017-10-03T09:41:09.881Z,1007.17
2017-10-03T09:42:09.905Z,1007.28
2017-10-03T09:43:09.930Z,1007.25
2017-10-03T09:44:09.954Z,1007.3
2017-10-03T09:45:09.977Z,1007.25
2017-10-03T09:46:10.001Z,1007.29
2017-10-03T09:47:10.022Z,1007.31
2017-10-03T09:48:10.047Z,1007.3
2017-10-03T09:49:10.070Z,1007.34
2017-10-03T09:50:10.094Z,1007.35
2017-10-03T09:51:10.116Z,1007.44
2017-10-03T09:52:10.140Z,1007.33
2017-10-03T09:53:10.164Z,1007.39
2017-10-03T09:54:10.188Z,1007.39
2017-10-03T09:55:10.212Z,1007.39
2017-10-03T09:56:10.234Z,1007.43
2017-10-03T09:57:10.259Z,1007.46
2017-10-03T09:58:10.282Z,1007.49
2017-10-03T09:59:10.306Z,1007.46
2017-10-03T10:00:10.327Z,1007.51
2017-10-03T10:01:10.355Z,1007.48
2017-10-03T10:02:10.376Z,1007.51
2017-10-03T10:03:10.400Z,1007.55
2017-10-03T10:05:10.447Z,1007.59
2017-10-03T10:06:10.472Z,1007.66
2017-10-03T10:07:10.494Z,1007.64
2017-10-03T10:08:10.518Z,1007.65
2017-10-03T10:09:10.542Z,1007.68
2017-10-03T10:10:10.566Z,1007.64
2017-10-03T10:11:10.590Z,1007.69
2017-10-03T10:12:10.663Z,1007.7
2017-10-03T10:13:10.637Z,1007.68
2017-10-03T10:14:10.660Z,1007.7
2017-10-03T10:15:10.684Z,1007.67
2017-10-03T10:16:10.706Z,1007.67
2017-10-03T10:17:10.731Z,1007.71
2017-10-03T10:18:10.755Z,1007.68
2017-10-03T10:19:10.779Z,1007.74
2017-10-03T10:21:10.826Z,1007.76
2017-10-03T10:22:10.849Z,1007.78
2017-10-03T10:23:10.873Z,1007.8
2017-10-03T10:24:10.917Z,1007.79
2017-10-03T10:25:10.919Z,1007.75
2017-10-03T10:26:10.946Z,1007.78
2017-10-03T10:27:10.968Z,1007.74
2017-10-03T10:28:10.990Z,1007.77
2017-10-03T10:29:11.041Z,1007.8
2017-10-03T10:30:11.036Z,1007.82
2017-10-03T10:31:11.060Z,1007.78
2017-10-03T10:32:11.084Z,1007.8
2017-10-03T10:33:11.107Z,1007.8
2017-10-03T10:34:11.131Z,1007.8
2017-10-03T10:35:11.155Z,1007.78
2017-10-03T10:37:11.202Z,1007.86
2017-10-03T10:38:11.223Z,1007.85
2017-10-03T10:39:11.248Z,1007.88
2017-10-03T10:40:11.271Z,1007.87
2017-10-03T10:41:11.294Z,1007.91
2017-10-03T10:42:11.318Z,1007.88
2017-10-03T10:43:11.343Z,1007.87
2017-10-03T10:44:11.365Z,1007.89
2017-10-03T10:45:11.388Z,1007.91
2017-10-03T10:46:11.411Z,1007.95
2017-10-03T10:47:11.433Z,1007.91
2017-10-03T10:48:11.457Z,1007.92
2017-10-03T10:49:11.482Z,1007.96
2017-10-03T10:50:11.505Z,1007.99
2017-10-03T10:51:11.528Z,1007.91
2017-10-03T10:53:11.576Z,1007.94
2017-10-03T10:54:11.599Z,1007.94
2017-10-03T10:55:11.624Z,1007.95
2017-10-03T10:56:11.648Z,1007.89
2017-10-03T10:57:11.668Z,1007.92
2017-10-03T10:58:11.692Z,1007.93
2017-10-03T10:59:11.717Z,1007.89
2017-10-03T11:00:11.740Z,1007.97
2017-10-03T11:01:11.766Z,1008.03
2017-10-03T11:02:11.788Z,1007.95
2017-10-03T11:03:11.811Z,1008.05
2017-10-03T11:04:11.835Z,1008.06
2017-10-03T11:05:11.858Z,1008.12
2017-10-03T11:06:11.883Z,1008.07
2017-10-03T11:08:11.931Z,1008.12
2017-10-03T11:09:11.953Z,1008.1
2017-10-03T11:10:11.977Z,1008.08
2017-10-03T11:11:12.003Z,1008.11
2017-10-03T11:12:12.026Z,1008.05
2017-10-03T11:13:12.047Z,1008.14
2017-10-03T11:14:12.071Z,1008.1
2017-10-03T11:15:12.095Z,1008.11
2017-10-03T11:16:12.118Z,1008.13
2017-10-03T11:17:12.194Z,1008.1
2017-10-03T11:18:12.168Z,1008.12
2017-10-03T11:19:12.190Z,1008.05
2017-10-03T11:20:12.213Z,1008.1
2017-10-03T11:21:12.239Z,1008.11
2017-10-03T11:22:12.263Z,1008.13
2017-10-03T11:23:12.287Z,1008.2
2017-10-03T11:24:12.310Z,1008.18
2017-10-03T11:25:12.333Z,1008.16
2017-10-03T11:26:12.361Z,1008.18
2017-10-03T11:27:12.382Z,1008.18
2017-10-03T11:28:12.403Z,1008.21
2017-10-03T11:29:12.430Z,1008.27
2017-10-03T11:30:12.454Z,1008.2
2017-10-03T11:31:12.478Z,1008.21
2017-10-03T11:32:12.502Z,1008.25
2017-10-03T11:33:12.524Z,1008.3
2017-10-03T11:34:12.548Z,1008.27
2017-10-03T11:35:12.571Z,1008.27
2017-10-03T11:36:12.597Z,1008.31
2017-10-03T11:37:12.620Z,1008.37
2017-10-03T11:38:12.643Z,1008.35
2017-10-03T11:40:12.695Z,1008.35
2017-10-03T11:41:12.716Z,1008.48
2017-10-03T11:42:12.737Z,1008.42
2017-10-03T11:43:12.762Z,1008.43
2017-10-03T11:44:12.786Z,1008.45
2017-10-03T11:45:12.813Z,1008.46
2017-10-03T11:46:12.832Z,1008.48
2017-10-03T11:47:12.856Z,1008.49
2017-10-03T11:48:12.880Z,1008.49
2017-10-03T11:49:12.903Z,1008.57
2017-10-03T11:50:12.927Z,1008.62
2017-10-03T11:51:12.950Z,1008.62
2017-10-03T11:52:12.974Z,1008.64
2017-10-03T11:53:12.996Z,1008.67
2017-10-03T11:54:13.020Z,1008.67
2017-10-03T11:56:13.070Z,1008.7
2017-10-03T11:57:13.091Z,1008.71
2017-10-03T11:58:13.136Z,1008.72
2017-10-03T11:59:13.137Z,1008.7
2017-10-03T12:00:13.160Z,1008.69
2017-10-03T12:01:13.184Z,1008.71
2017-10-03T12:02:13.208Z,1008.71
2017-10-03T12:03:13.232Z,1008.68
2017-10-03T12:04:13.253Z,1008.73
2017-10-03T12:05:13.277Z,1008.75
2017-10-03T12:06:13.301Z,1008.75
2017-10-03T12:07:13.325Z,1008.74
2017-10-03T12:08:13.349Z,1008.73
2017-10-03T12:09:13.373Z,1008.76
2017-10-03T12:10:13.396Z,1008.74
2017-10-03T12:12:13.440Z,1008.73
2017-10-03T12:13:13.465Z,1008.75
2017-10-03T12:14:13.489Z,1008.75
2017-10-03T12:15:13.512Z,1008.72
2017-10-03T12:16:13.535Z,1008.65
2017-10-03T12:17:13.559Z,1008.72
2017-10-03T12:18:13.583Z,1008.7
2017-10-03T12:19:13.606Z,1008.79
2017-10-03T12:20:13.628Z,1008.72
2017-10-03T12:21:13.652Z,1008.76
2017-10-03T12:22:13.675Z,1008.77
2017-10-03T12:23:13.700Z,1008.79
2017-10-03T12:24:13.724Z,1008.78
2017-10-03T12:25:13.747Z,1008.82
2017-10-03T12:26:13.773Z,1008.82
2017-10-03T12:28:13.818Z,1008.88
2017-10-03T12:29:13.841Z,1008.85
2017-10-03T12:30:13.865Z,1008.86
2017-10-03T12:31:13.890Z,1008.88
2017-10-03T12:32:13.916Z,1008.83
2017-10-03T12:33:13.937Z,1008.81
2017-10-03T12:34:13.960Z,1008.88
2017-10-03T12:35:13.985Z,1008.84
2017-10-03T12:36:14.010Z,1008.86
2017-10-03T12:37:14.031Z,1008.9
2017-10-03T12:38:14.056Z,1008.91
2017-10-03T12:39:14.079Z,1008.84
2017-10-03T12:40:14.105Z,1008.84
2017-10-03T12:41:14.127Z,1008.85
2017-10-03T12:43:14.178Z,1008.93
2017-10-03T12:44:14.202Z,1008.88
2017-10-03T12:45:14.228Z,1008.91
2017-10-03T12:46:14.250Z,1008.88
2017-10-03T12:47:14.273Z,1008.9
2017-10-03T12:48:14.296Z,1008.82
2017-10-03T12:49:14.322Z,1008.85
2017-10-03T12:50:14.345Z,1008.86